This is the latest recevied weather packets stored in our database for station/object N4HAC. If no packets are shown the sender has not sent any weather packets the latest 1 day(s).
| Time | Temp. | Humidity | Pressure | Rain* | Wind** | Luminosity | Snow |
|---|---|---|---|---|---|---|---|
| 1777976468 | 12.22° C | 86% | 1006.1 hPa | 0 mm | 1.34 m/s, 39° | 6 W/m² | - |
| 1777976167 | 11.67° C | 88% | 1006.3 hPa | 0 mm | 2.24 m/s, 45° | 4 W/m² | - |
| 1777975862 | 11.67° C | 89% | 1006.2 hPa | 0 mm | 1.79 m/s, 51° | 2 W/m² | - |
| 1777975559 | 11.11° C | 91% | 1006.2 hPa | 0 mm | 1.79 m/s, 42° | 1 W/m² | - |
| 1777975256 | 11.11° C | 91% | 1006 hPa | 0 mm | 1.34 m/s, 42° | 1 W/m² | - |
| 1777974952 | 11.67° C | 89% | 1006.2 hPa | 0 mm | 1.79 m/s, 43° | 0 W/m² | - |
| 1777974649 | 11.67° C | 88% | 1005.9 hPa | 0 mm | 1.34 m/s, 35° | 0 W/m² | - |
| 1777974345 | 11.67° C | 88% | 1006.2 hPa | 0 mm | 0.89 m/s, 55° | 0 W/m² | - |
| 1777974041 | 11.67° C | 89% | 1006.2 hPa | 0 mm | 0.45 m/s, 345° | 0 W/m² | - |
| 1777973738 | 11.67° C | 91% | 1006.1 hPa | 0 mm | 0.89 m/s, 44° | 0 W/m² | - |
| 1777973436 | 11.11° C | 92% | 1006 hPa | 0 mm | 0.89 m/s, 13° | 0 W/m² | - |
| 1777973133 | 10.56° C | 93% | 1006 hPa | 0 mm | 0.89 m/s, 353° | 0 W/m² | - |
| 1777972831 | 10.56° C | 93% | 1005.9 hPa | 0 mm | 1.34 m/s, 8° | 0 W/m² | - |
| 1777972527 | 11.11° C | 92% | 1006.1 hPa | 0 mm | 1.34 m/s, 28° | 0 W/m² | - |
| 1777972226 | 11.11° C | 92% | 1005.9 hPa | 0 mm | 0.45 m/s, 22° | 0 W/m² | - |
| 1777971923 | 11.11° C | 92% | 1006.1 hPa | 0 mm | 0 m/s | 0 W/m² | - |
| 1777971621 | 10.56° C | 93% | 1005.8 hPa | 0 mm | 0.89 m/s, 347° | 0 W/m² | - |
| 1777971319 | 10.56° C | 91% | 1006 hPa | 0 mm | 1.34 m/s, 19° | 0 W/m² | - |
| 1777971017 | 11.11° C | 89% | 1005.8 hPa | 0 mm | 0.89 m/s, 7° | 0 W/m² | - |
| 1777970715 | 11.67° C | 89% | 1005.8 hPa | 0 mm | 0.45 m/s, 359° | 0 W/m² | - |
| 1777970413 | 11.11° C | 90% | 1006 hPa | 0 mm | 0.89 m/s, 38° | 0 W/m² | - |
| 1777970110 | 11.11° C | 89% | 1005.8 hPa | 0 mm | 0.45 m/s, 340° | 0 W/m² | - |
| 1777969806 | 11.67° C | 87% | 1005.8 hPa | 0 mm | 0.45 m/s, 55° | 0 W/m² | - |
| 1777969501 | 12.22° C | 87% | 1005.9 hPa | 0 mm | 0 m/s | 0 W/m² | - |
| 1777969199 | 12.22° C | 88% | 1005.9 hPa | 0 mm | 0 m/s | 0 W/m² | - |
* Rain latest hour (hover to see other rain measurements)
** Current wind speed in m/s (hover to see current wind gust speed)